sensor_id;sensor_type;location;lat;lon;timestamp;P1;durP1;ratioP1;P2;durP2;ratioP2
37001;SDS011;22913;51.910;8.374;2023-01-28T00:01:46;2.53;;;2.33;;
37001;SDS011;22913;51.910;8.374;2023-01-28T00:04:33;2.67;;;2.30;;
37001;SDS011;22913;51.910;8.374;2023-01-28T00:07:18;2.23;;;2.03;;
37001;SDS011;22913;51.910;8.374;2023-01-28T00:10:04;2.43;;;1.80;;
37001;SDS011;22913;51.910;8.374;2023-01-28T00:12:51;2.93;;;2.13;;
37001;SDS011;22913;51.910;8.374;2023-01-28T00:15:36;2.77;;;2.13;;
37001;SDS011;22913;51.910;8.374;2023-01-28T00:18:22;2.20;;;2.00;;
37001;SDS011;22913;51.910;8.374;2023-01-28T00:21:10;2.10;;;2.00;;
37001;SDS011;22913;51.910;8.374;2023-01-28T00:23:56;5.10;;;2.07;;
37001;SDS011;22913;51.910;8.374;2023-01-28T00:26:42;2.00;;;1.90;;
37001;SDS011;22913;51.910;8.374;2023-01-28T00:29:27;2.57;;;1.90;;
37001;SDS011;22913;51.910;8.374;2023-01-28T00:32:13;3.57;;;2.10;;
37001;SDS011;22913;51.910;8.374;2023-01-28T00:34:59;3.93;;;2.00;;
37001;SDS011;22913;51.910;8.374;2023-01-28T00:37:46;2.47;;;2.27;;
37001;SDS011;22913;51.910;8.374;2023-01-28T00:40:31;2.40;;;2.20;;
37001;SDS011;22913;51.910;8.374;2023-01-28T00:43:17;3.73;;;2.20;;
37001;SDS011;22913;51.910;8.374;2023-01-28T00:46:03;2.73;;;2.50;;
37001;SDS011;22913;51.910;8.374;2023-01-28T00:48:50;2.87;;;2.43;;
37001;SDS011;22913;51.910;8.374;2023-01-28T00:51:36;2.60;;;2.40;;
37001;SDS011;22913;51.910;8.374;2023-01-28T00:54:23;2.40;;;2.30;;
37001;SDS011;22913;51.910;8.374;2023-01-28T00:57:08;5.10;;;2.50;;
37001;SDS011;22913;51.910;8.374;2023-01-28T00:59:54;2.20;;;2.10;;
37001;SDS011;22913;51.910;8.374;2023-01-28T01:02:40;2.50;;;2.30;;
37001;SDS011;22913;51.910;8.374;2023-01-28T01:05:26;2.93;;;2.60;;
37001;SDS011;22913;51.910;8.374;2023-01-28T01:08:12;2.77;;;2.57;;
37001;SDS011;22913;51.910;8.374;2023-01-28T01:10:59;3.20;;;2.90;;
37001;SDS011;22913;51.910;8.374;2023-01-28T01:13:48;3.27;;;2.97;;
37001;SDS011;22913;51.910;8.374;2023-01-28T01:16:35;2.67;;;2.47;;
37001;SDS011;22913;51.910;8.374;2023-01-28T01:19:21;2.70;;;2.50;;
37001;SDS011;22913;51.910;8.374;2023-01-28T01:22:07;2.80;;;2.60;;
37001;SDS011;22913;51.910;8.374;2023-01-28T01:24:53;3.00;;;2.80;;
37001;SDS011;22913;51.910;8.374;2023-01-28T01:27:40;3.23;;;3.00;;
37001;SDS011;22913;51.910;8.374;2023-01-28T01:30:26;4.00;;;2.83;;
37001;SDS011;22913;51.910;8.374;2023-01-28T01:33:11;3.20;;;3.00;;
37001;SDS011;22913;51.910;8.374;2023-01-28T01:35:57;5.27;;;2.70;;
37001;SDS011;22913;51.910;8.374;2023-01-28T01:38:43;3.53;;;2.67;;
37001;SDS011;22913;51.910;8.374;2023-01-28T01:41:30;2.70;;;2.40;;
37001;SDS011;22913;51.910;8.374;2023-01-28T01:47:38;3.37;;;2.10;;
37001;SDS011;22913;51.910;8.374;2023-01-28T01:50:28;3.07;;;2.60;;
37001;SDS011;22913;51.910;8.374;2023-01-28T01:53:17;2.70;;;2.50;;
37001;SDS011;22913;51.910;8.374;2023-01-28T01:56:06;3.60;;;2.97;;
37001;SDS011;22913;51.910;8.374;2023-01-28T01:58:54;3.00;;;2.80;;
37001;SDS011;22913;51.910;8.374;2023-01-28T02:01:43;3.20;;;2.90;;
37001;SDS011;22913;51.910;8.374;2023-01-28T02:04:30;3.07;;;2.87;;
37001;SDS011;22913;51.910;8.374;2023-01-28T02:07:17;5.27;;;2.70;;
37001;SDS011;22913;51.910;8.374;2023-01-28T02:10:04;4.53;;;2.70;;
37001;SDS011;22913;51.910;8.374;2023-01-28T02:12:52;5.77;;;2.67;;
37001;SDS011;22913;51.910;8.374;2023-01-28T02:15:40;2.60;;;2.40;;
37001;SDS011;22913;51.910;8.374;2023-01-28T02:18:30;3.00;;;2.70;;
37001;SDS011;22913;51.910;8.374;2023-01-28T02:21:30;3.13;;;2.47;;
37001;SDS011;22913;51.910;8.374;2023-01-28T02:24:42;3.37;;;3.03;;
37001;SDS011;22913;51.910;8.374;2023-01-28T02:27:49;2.87;;;2.63;;
37001;SDS011;22913;51.910;8.374;2023-01-28T02:30:43;3.00;;;2.73;;
37001;SDS011;22913;51.910;8.374;2023-01-28T02:33:37;2.90;;;2.70;;
37001;SDS011;22913;51.910;8.374;2023-01-28T02:36:28;2.90;;;2.70;;
37001;SDS011;22913;51.910;8.374;2023-01-28T02:39:21;3.00;;;2.80;;
37001;SDS011;22913;51.910;8.374;2023-01-28T02:42:10;3.30;;;3.10;;
37001;SDS011;22913;51.910;8.374;2023-01-28T02:45:01;3.10;;;2.90;;
37001;SDS011;22913;51.910;8.374;2023-01-28T02:47:47;3.10;;;2.80;;
37001;SDS011;22913;51.910;8.374;2023-01-28T02:50:43;3.70;;;3.40;;
37001;SDS011;22913;51.910;8.374;2023-01-28T02:53:34;3.50;;;3.20;;
37001;SDS011;22913;51.910;8.374;2023-01-28T02:56:25;3.77;;;3.43;;
37001;SDS011;22913;51.910;8.374;2023-01-28T02:59:17;3.33;;;2.90;;
37001;SDS011;22913;51.910;8.374;2023-01-28T03:02:20;3.50;;;3.03;;
37001;SDS011;22913;51.910;8.374;2023-01-28T03:05:13;3.27;;;3.07;;
37001;SDS011;22913;51.910;8.374;2023-01-28T03:08:04;4.63;;;3.33;;
37001;SDS011;22913;51.910;8.374;2023-01-28T03:11:06;5.67;;;3.53;;
37001;SDS011;22913;51.910;8.374;2023-01-28T03:14:09;5.80;;;3.27;;
37001;SDS011;22913;51.910;8.374;2023-01-28T03:17:17;3.13;;;2.93;;
37001;SDS011;22913;51.910;8.374;2023-01-28T03:20:27;3.40;;;3.10;;
37001;SDS011;22913;51.910;8.374;2023-01-28T03:23:36;4.23;;;3.17;;
37001;SDS011;22913;51.910;8.374;2023-01-28T03:26:43;4.03;;;3.20;;
37001;SDS011;22913;51.910;8.374;2023-01-28T03:29:52;3.63;;;3.07;;
37001;SDS011;22913;51.910;8.374;2023-01-28T03:33:00;3.10;;;2.73;;
37001;SDS011;22913;51.910;8.374;2023-01-28T03:36:05;3.90;;;2.90;;
37001;SDS011;22913;51.910;8.374;2023-01-28T03:39:09;3.20;;;3.00;;
37001;SDS011;22913;51.910;8.374;2023-01-28T03:41:56;3.60;;;3.30;;
37001;SDS011;22913;51.910;8.374;2023-01-28T03:44:46;3.03;;;2.83;;
37001;SDS011;22913;51.910;8.374;2023-01-28T03:47:37;3.63;;;2.90;;
37001;SDS011;22913;51.910;8.374;2023-01-28T03:50:25;3.53;;;3.23;;
37001;SDS011;22913;51.910;8.374;2023-01-28T03:53:10;3.53;;;3.17;;
37001;SDS011;22913;51.910;8.374;2023-01-28T03:55:57;3.40;;;3.10;;
37001;SDS011;22913;51.910;8.374;2023-01-28T03:58:42;3.30;;;3.10;;
37001;SDS011;22913;51.910;8.374;2023-01-28T04:01:35;3.60;;;3.30;;
37001;SDS011;22913;51.910;8.374;2023-01-28T04:04:21;3.50;;;3.20;;
37001;SDS011;22913;51.910;8.374;2023-01-28T04:07:09;3.40;;;3.20;;
37001;SDS011;22913;51.910;8.374;2023-01-28T04:09:57;3.27;;;2.97;;
37001;SDS011;22913;51.910;8.374;2023-01-28T04:12:42;4.67;;;3.57;;
37001;SDS011;22913;51.910;8.374;2023-01-28T04:15:28;3.70;;;3.10;;
37001;SDS011;22913;51.910;8.374;2023-01-28T04:18:14;3.27;;;3.07;;
37001;SDS011;22913;51.910;8.374;2023-01-28T04:20:59;4.33;;;3.00;;
37001;SDS011;22913;51.910;8.374;2023-01-28T04:23:47;3.30;;;3.10;;
37001;SDS011;22913;51.910;8.374;2023-01-28T04:26:32;2.90;;;2.50;;
37001;SDS011;22913;51.910;8.374;2023-01-28T04:29:17;2.70;;;2.40;;
37001;SDS011;22913;51.910;8.374;2023-01-28T04:32:03;2.97;;;2.40;;
37001;SDS011;22913;51.910;8.374;2023-01-28T04:34:50;2.07;;;1.97;;
37001;SDS011;22913;51.910;8.374;2023-01-28T04:37:35;2.50;;;2.10;;
37001;SDS011;22913;51.910;8.374;2023-01-28T04:40:22;2.20;;;1.93;;
37001;SDS011;22913;51.910;8.374;2023-01-28T04:43:08;2.70;;;2.30;;
37001;SDS011;22913;51.910;8.374;2023-01-28T04:45:53;2.40;;;2.30;;
37001;SDS011;22913;51.910;8.374;2023-01-28T04:48:39;2.17;;;2.03;;
37001;SDS011;22913;51.910;8.374;2023-01-28T04:51:24;3.00;;;2.30;;
37001;SDS011;22913;51.910;8.374;2023-01-28T04:54:10;2.83;;;2.63;;
37001;SDS011;22913;51.910;8.374;2023-01-28T04:56:58;5.13;;;2.87;;
37001;SDS011;22913;51.910;8.374;2023-01-28T04:59:43;4.93;;;3.00;;
37001;SDS011;22913;51.910;8.374;2023-01-28T05:02:29;5.50;;;2.80;;
37001;SDS011;22913;51.910;8.374;2023-01-28T05:05:14;4.77;;;3.13;;
37001;SDS011;22913;51.910;8.374;2023-01-28T05:08:00;3.37;;;3.00;;
37001;SDS011;22913;51.910;8.374;2023-01-28T05:10:46;3.60;;;3.30;;
37001;SDS011;22913;51.910;8.374;2023-01-28T05:13:33;3.73;;;3.43;;
37001;SDS011;22913;51.910;8.374;2023-01-28T05:16:18;3.40;;;3.20;;
37001;SDS011;22913;51.910;8.374;2023-01-28T05:19:04;4.67;;;3.30;;
37001;SDS011;22913;51.910;8.374;2023-01-28T05:21:50;5.27;;;2.57;;
37001;SDS011;22913;51.910;8.374;2023-01-28T05:24:35;2.90;;;2.70;;
37001;SDS011;22913;51.910;8.374;2023-01-28T05:27:21;2.53;;;2.33;;
37001;SDS011;22913;51.910;8.374;2023-01-28T05:30:09;3.30;;;3.00;;
37001;SDS011;22913;51.910;8.374;2023-01-28T05:32:55;4.77;;;2.93;;
37001;SDS011;22913;51.910;8.374;2023-01-28T05:35:41;3.27;;;3.00;;
37001;SDS011;22913;51.910;8.374;2023-01-28T05:38:26;3.57;;;3.27;;
37001;SDS011;22913;51.910;8.374;2023-01-28T05:41:12;3.37;;;3.07;;
37001;SDS011;22913;51.910;8.374;2023-01-28T05:43:58;3.57;;;3.27;;
37001;SDS011;22913;51.910;8.374;2023-01-28T05:46:45;3.03;;;2.90;;
37001;SDS011;22913;51.910;8.374;2023-01-28T05:49:30;3.00;;;2.80;;
37001;SDS011;22913;51.910;8.374;2023-01-28T05:52:16;3.20;;;2.90;;
37001;SDS011;22913;51.910;8.374;2023-01-28T05:55:02;3.10;;;2.90;;
37001;SDS011;22913;51.910;8.374;2023-01-28T05:57:48;5.70;;;3.10;;
37001;SDS011;22913;51.910;8.374;2023-01-28T06:00:33;3.70;;;3.40;;
37001;SDS011;22913;51.910;8.374;2023-01-28T06:03:20;3.60;;;3.30;;
37001;SDS011;22913;51.910;8.374;2023-01-28T06:06:05;3.30;;;3.03;;
37001;SDS011;22913;51.910;8.374;2023-01-28T06:08:51;3.27;;;2.97;;
37001;SDS011;22913;51.910;8.374;2023-01-28T06:11:37;4.33;;;2.93;;
37001;SDS011;22913;51.910;8.374;2023-01-28T06:14:22;3.37;;;3.07;;
37001;SDS011;22913;51.910;8.374;2023-01-28T06:17:08;3.53;;;3.20;;
37001;SDS011;22913;51.910;8.374;2023-01-28T06:19:56;3.33;;;3.13;;
37001;SDS011;22913;51.910;8.374;2023-01-28T06:22:41;5.23;;;3.33;;
37001;SDS011;22913;51.910;8.374;2023-01-28T06:25:27;3.30;;;3.10;;
37001;SDS011;22913;51.910;8.374;2023-01-28T06:28:13;4.00;;;3.60;;
37001;SDS011;22913;51.910;8.374;2023-01-28T06:30:58;3.97;;;3.13;;
37001;SDS011;22913;51.910;8.374;2023-01-28T06:33:44;5.23;;;3.70;;
37001;SDS011;22913;51.910;8.374;2023-01-28T06:36:31;3.67;;;3.37;;
37001;SDS011;22913;51.910;8.374;2023-01-28T06:39:17;4.00;;;3.70;;
37001;SDS011;22913;51.910;8.374;2023-01-28T06:42:04;4.00;;;3.60;;
37001;SDS011;22913;51.910;8.374;2023-01-28T06:44:49;4.57;;;3.77;;
37001;SDS011;22913;51.910;8.374;2023-01-28T06:47:35;3.63;;;3.33;;
37001;SDS011;22913;51.910;8.374;2023-01-28T06:50:22;3.90;;;3.60;;
37001;SDS011;22913;51.910;8.374;2023-01-28T06:53:10;4.07;;;3.77;;
37001;SDS011;22913;51.910;8.374;2023-01-28T06:55:55;7.30;;;3.93;;
37001;SDS011;22913;51.910;8.374;2023-01-28T06:58:41;3.23;;;3.03;;
37001;SDS011;22913;51.910;8.374;2023-01-28T07:01:26;4.97;;;4.50;;
37001;SDS011;22913;51.910;8.374;2023-01-28T07:04:12;5.53;;;4.60;;
37001;SDS011;22913;51.910;8.374;2023-01-28T07:06:58;5.10;;;4.60;;
37001;SDS011;22913;51.910;8.374;2023-01-28T07:09:45;4.77;;;4.30;;
37001;SDS011;22913;51.910;8.374;2023-01-28T07:12:30;4.33;;;3.97;;
37001;SDS011;22913;51.910;8.374;2023-01-28T07:15:16;3.80;;;3.50;;
37001;SDS011;22913;51.910;8.374;2023-01-28T07:18:02;4.10;;;3.80;;
37001;SDS011;22913;51.910;8.374;2023-01-28T07:20:48;4.97;;;3.80;;
37001;SDS011;22913;51.910;8.374;2023-01-28T07:23:34;5.30;;;3.90;;
37001;SDS011;22913;51.910;8.374;2023-01-28T07:26:20;4.50;;;4.10;;
37001;SDS011;22913;51.910;8.374;2023-01-28T07:29:07;5.27;;;3.67;;
37001;SDS011;22913;51.910;8.374;2023-01-28T07:31:53;6.00;;;3.90;;
37001;SDS011;22913;51.910;8.374;2023-01-28T07:34:39;3.73;;;3.30;;
37001;SDS011;22913;51.910;8.374;2023-01-28T07:37:25;4.00;;;3.70;;
37001;SDS011;22913;51.910;8.374;2023-01-28T07:40:11;4.27;;;4.00;;
37001;SDS011;22913;51.910;8.374;2023-01-28T07:42:58;4.53;;;4.20;;
37001;SDS011;22913;51.910;8.374;2023-01-28T07:45:44;5.07;;;3.90;;
37001;SDS011;22913;51.910;8.374;2023-01-28T07:48:30;4.63;;;4.17;;
37001;SDS011;22913;51.910;8.374;2023-01-28T07:51:15;4.20;;;3.97;;
37001;SDS011;22913;51.910;8.374;2023-01-28T07:54:01;4.90;;;4.40;;
37001;SDS011;22913;51.910;8.374;2023-01-28T07:56:47;6.23;;;4.60;;
37001;SDS011;22913;51.910;8.374;2023-01-28T07:59:34;4.23;;;3.93;;
37001;SDS011;22913;51.910;8.374;2023-01-28T08:02:19;4.47;;;4.17;;
37001;SDS011;22913;51.910;8.374;2023-01-28T08:05:05;4.20;;;3.80;;
37001;SDS011;22913;51.910;8.374;2023-01-28T08:07:51;4.47;;;4.10;;
37001;SDS011;22913;51.910;8.374;2023-01-28T08:10:37;5.87;;;5.20;;
37001;SDS011;22913;51.910;8.374;2023-01-28T08:13:23;9.43;;;6.87;;
37001;SDS011;22913;51.910;8.374;2023-01-28T08:16:10;7.30;;;5.90;;
37001;SDS011;22913;51.910;8.374;2023-01-28T08:18:56;5.83;;;5.07;;
37001;SDS011;22913;51.910;8.374;2023-01-28T08:21:41;4.93;;;4.53;;
37001;SDS011;22913;51.910;8.374;2023-01-28T08:24:27;5.17;;;4.67;;
37001;SDS011;22913;51.910;8.374;2023-01-28T08:27:13;4.33;;;4.03;;
37001;SDS011;22913;51.910;8.374;2023-01-28T08:29:58;4.50;;;4.17;;
37001;SDS011;22913;51.910;8.374;2023-01-28T08:32:45;4.37;;;3.90;;
37001;SDS011;22913;51.910;8.374;2023-01-28T08:35:31;4.33;;;3.90;;
37001;SDS011;22913;51.910;8.374;2023-01-28T08:38:17;4.50;;;4.20;;
37001;SDS011;22913;51.910;8.374;2023-01-28T08:41:03;4.70;;;4.30;;
37001;SDS011;22913;51.910;8.374;2023-01-28T08:43:48;5.27;;;4.30;;
37001;SDS011;22913;51.910;8.374;2023-01-28T08:46:34;4.47;;;4.07;;
37001;SDS011;22913;51.910;8.374;2023-01-28T08:49:21;5.03;;;4.60;;
37001;SDS011;22913;51.910;8.374;2023-01-28T08:52:07;4.10;;;3.80;;
37001;SDS011;22913;51.910;8.374;2023-01-28T08:54:53;4.80;;;4.40;;
37001;SDS011;22913;51.910;8.374;2023-01-28T08:57:39;6.00;;;4.30;;
37001;SDS011;22913;51.910;8.374;2023-01-28T09:00:25;4.30;;;4.00;;
37001;SDS011;22913;51.910;8.374;2023-01-28T09:03:10;4.47;;;4.07;;
37001;SDS011;22913;51.910;8.374;2023-01-28T09:05:59;5.07;;;4.27;;
37001;SDS011;22913;51.910;8.374;2023-01-28T09:08:46;3.80;;;3.47;;
37001;SDS011;22913;51.910;8.374;2023-01-28T09:11:31;3.57;;;3.30;;
37001;SDS011;22913;51.910;8.374;2023-01-28T09:14:17;3.87;;;3.57;;
37001;SDS011;22913;51.910;8.374;2023-01-28T09:17:03;5.93;;;4.00;;
37001;SDS011;22913;51.910;8.374;2023-01-28T09:19:49;4.43;;;4.03;;
37001;SDS011;22913;51.910;8.374;2023-01-28T09:22:36;4.60;;;4.20;;
37001;SDS011;22913;51.910;8.374;2023-01-28T09:25:21;5.53;;;4.70;;
37001;SDS011;22913;51.910;8.374;2023-01-28T09:28:07;5.37;;;4.60;;
37001;SDS011;22913;51.910;8.374;2023-01-28T09:30:52;5.03;;;4.63;;
37001;SDS011;22913;51.910;8.374;2023-01-28T09:33:39;4.83;;;4.37;;
37001;SDS011;22913;51.910;8.374;2023-01-28T09:36:25;5.63;;;4.80;;
37001;SDS011;22913;51.910;8.374;2023-01-28T09:39:12;5.57;;;5.07;;
37001;SDS011;22913;51.910;8.374;2023-01-28T09:42:01;4.60;;;4.20;;
37001;SDS011;22913;51.910;8.374;2023-01-28T09:45:00;4.10;;;3.80;;
37001;SDS011;22913;51.910;8.374;2023-01-28T09:47:51;5.73;;;4.40;;
37001;SDS011;22913;51.910;8.374;2023-01-28T09:50:40;7.07;;;4.07;;
37001;SDS011;22913;51.910;8.374;2023-01-28T09:53:28;5.40;;;4.37;;
37001;SDS011;22913;51.910;8.374;2023-01-28T09:56:26;4.60;;;4.30;;
37001;SDS011;22913;51.910;8.374;2023-01-28T09:59:15;4.53;;;4.23;;
37001;SDS011;22913;51.910;8.374;2023-01-28T10:02:03;5.43;;;4.93;;
37001;SDS011;22913;51.910;8.374;2023-01-28T10:05:15;5.40;;;4.90;;
37001;SDS011;22913;51.910;8.374;2023-01-28T10:08:07;7.10;;;4.80;;
37001;SDS011;22913;51.910;8.374;2023-01-28T10:11:05;5.53;;;5.03;;
37001;SDS011;22913;51.910;8.374;2023-01-28T10:14:04;5.23;;;4.77;;
37001;SDS011;22913;51.910;8.374;2023-01-28T10:16:58;5.23;;;4.77;;
37001;SDS011;22913;51.910;8.374;2023-01-28T10:19:50;4.53;;;4.23;;
37001;SDS011;22913;51.910;8.374;2023-01-28T10:22:42;5.70;;;5.10;;
37001;SDS011;22913;51.910;8.374;2023-01-28T10:25:32;5.87;;;4.90;;
37001;SDS011;22913;51.910;8.374;2023-01-28T10:28:20;5.73;;;4.47;;
37001;SDS011;22913;51.910;8.374;2023-01-28T10:31:12;5.00;;;4.60;;
37001;SDS011;22913;51.910;8.374;2023-01-28T10:33:58;6.27;;;4.63;;
37001;SDS011;22913;51.910;8.374;2023-01-28T10:36:44;6.10;;;4.80;;
37001;SDS011;22913;51.910;8.374;2023-01-28T10:39:30;4.37;;;3.97;;
37001;SDS011;22913;51.910;8.374;2023-01-28T10:42:19;5.00;;;4.53;;
37001;SDS011;22913;51.910;8.374;2023-01-28T10:45:15;4.13;;;3.83;;
37001;SDS011;22913;51.910;8.374;2023-01-28T10:48:08;4.70;;;4.30;;
37001;SDS011;22913;51.910;8.374;2023-01-28T10:51:00;4.87;;;4.33;;
37001;SDS011;22913;51.910;8.374;2023-01-28T10:53:48;5.80;;;4.60;;
37001;SDS011;22913;51.910;8.374;2023-01-28T10:56:34;4.13;;;3.80;;
37001;SDS011;22913;51.910;8.374;2023-01-28T10:59:21;4.23;;;3.80;;
37001;SDS011;22913;51.910;8.374;2023-01-28T11:02:19;4.57;;;4.17;;
37001;SDS011;22913;51.910;8.374;2023-01-28T11:05:17;3.83;;;3.53;;
37001;SDS011;22913;51.910;8.374;2023-01-28T11:08:05;4.40;;;3.97;;
37001;SDS011;22913;51.910;8.374;2023-01-28T11:10:57;3.90;;;3.60;;
37001;SDS011;22913;51.910;8.374;2023-01-28T11:13:48;4.47;;;4.10;;
37001;SDS011;22913;51.910;8.374;2023-01-28T11:16:37;4.60;;;4.03;;
37001;SDS011;22913;51.910;8.374;2023-01-28T11:19:26;4.23;;;3.70;;
37001;SDS011;22913;51.910;8.374;2023-01-28T11:22:20;5.17;;;4.60;;
37001;SDS011;22913;51.910;8.374;2023-01-28T11:25:14;4.77;;;4.23;;
37001;SDS011;22913;51.910;8.374;2023-01-28T11:28:04;5.50;;;4.77;;
37001;SDS011;22913;51.910;8.374;2023-01-28T11:30:59;4.57;;;4.17;;
37001;SDS011;22913;51.910;8.374;2023-01-28T11:33:48;4.50;;;4.10;;
37001;SDS011;22913;51.910;8.374;2023-01-28T11:36:36;4.50;;;4.13;;
37001;SDS011;22913;51.910;8.374;2023-01-28T11:39:24;4.20;;;3.80;;
37001;SDS011;22913;51.910;8.374;2023-01-28T11:42:14;3.83;;;3.50;;
37001;SDS011;22913;51.910;8.374;2023-01-28T11:45:02;3.47;;;3.27;;
37001;SDS011;22913;51.910;8.374;2023-01-28T11:47:57;3.40;;;3.10;;
37001;SDS011;22913;51.910;8.374;2023-01-28T11:50:59;3.73;;;3.43;;
37001;SDS011;22913;51.910;8.374;2023-01-28T11:53:53;3.90;;;3.40;;
37001;SDS011;22913;51.910;8.374;2023-01-28T11:57:06;4.83;;;3.20;;
37001;SDS011;22913;51.910;8.374;2023-01-28T12:00:20;3.63;;;3.33;;
37001;SDS011;22913;51.910;8.374;2023-01-28T12:03:19;3.53;;;3.20;;
37001;SDS011;22913;51.910;8.374;2023-01-28T12:06:21;3.83;;;3.27;;
37001;SDS011;22913;51.910;8.374;2023-01-28T12:09:28;2.80;;;2.60;;
37001;SDS011;22913;51.910;8.374;2023-01-28T12:12:36;3.60;;;3.20;;
37001;SDS011;22913;51.910;8.374;2023-01-28T12:18:51;4.73;;;3.37;;
37001;SDS011;22913;51.910;8.374;2023-01-28T12:22:06;3.57;;;2.83;;
37001;SDS011;22913;51.910;8.374;2023-01-28T12:25:12;3.30;;;3.00;;
37001;SDS011;22913;51.910;8.374;2023-01-28T12:28:08;5.50;;;2.67;;
37001;SDS011;22913;51.910;8.374;2023-01-28T12:31:04;2.80;;;2.50;;
37001;SDS011;22913;51.910;8.374;2023-01-28T12:34:09;2.67;;;2.47;;
37001;SDS011;22913;51.910;8.374;2023-01-28T12:37:19;4.13;;;3.13;;
37001;SDS011;22913;51.910;8.374;2023-01-28T12:40:15;3.27;;;2.63;;
37001;SDS011;22913;51.910;8.374;2023-01-28T12:43:14;3.40;;;2.90;;
37001;SDS011;22913;51.910;8.374;2023-01-28T12:46:07;3.33;;;3.07;;
37001;SDS011;22913;51.910;8.374;2023-01-28T12:49:02;5.20;;;3.57;;
37001;SDS011;22913;51.910;8.374;2023-01-28T12:51:53;4.40;;;3.33;;
37001;SDS011;22913;51.910;8.374;2023-01-28T12:54:48;5.20;;;3.60;;
37001;SDS011;22913;51.910;8.374;2023-01-28T12:57:42;4.73;;;3.80;;
37001;SDS011;22913;51.910;8.374;2023-01-28T13:00:31;3.77;;;3.47;;
37001;SDS011;22913;51.910;8.374;2023-01-28T13:03:19;4.00;;;3.60;;
37001;SDS011;22913;51.910;8.374;2023-01-28T13:06:12;3.63;;;3.33;;
37001;SDS011;22913;51.910;8.374;2023-01-28T13:09:10;3.93;;;3.53;;
37001;SDS011;22913;51.910;8.374;2023-01-28T13:11:59;4.07;;;3.67;;
37001;SDS011;22913;51.910;8.374;2023-01-28T13:14:46;3.53;;;3.13;;
37001;SDS011;22913;51.910;8.374;2023-01-28T13:17:34;3.80;;;3.20;;
37001;SDS011;22913;51.910;8.374;2023-01-28T13:20:28;3.87;;;3.07;;
37001;SDS011;22913;51.910;8.374;2023-01-28T13:23:21;3.50;;;3.10;;
37001;SDS011;22913;51.910;8.374;2023-01-28T13:26:10;3.40;;;3.13;;
37001;SDS011;22913;51.910;8.374;2023-01-28T13:29:17;3.20;;;3.00;;
37001;SDS011;22913;51.910;8.374;2023-01-28T13:35:26;3.17;;;2.97;;
37001;SDS011;22913;51.910;8.374;2023-01-28T14:10:05;3.20;;;2.90;;
37001;SDS011;22913;51.910;8.374;2023-01-28T14:13:03;3.40;;;3.10;;
37001;SDS011;22913;51.910;8.374;2023-01-28T14:19:07;5.20;;;3.27;;
37001;SDS011;22913;51.910;8.374;2023-01-28T14:21:56;4.07;;;3.20;;
37001;SDS011;22913;51.910;8.374;2023-01-28T14:24:43;2.90;;;2.70;;
37001;SDS011;22913;51.910;8.374;2023-01-28T14:27:30;3.07;;;2.87;;
37001;SDS011;22913;51.910;8.374;2023-01-28T14:30:21;3.33;;;2.80;;
37001;SDS011;22913;51.910;8.374;2023-01-28T14:33:12;3.13;;;2.93;;
37001;SDS011;22913;51.910;8.374;2023-01-28T14:35:58;3.30;;;2.73;;
37001;SDS011;22913;51.910;8.374;2023-01-28T14:38:43;3.23;;;3.03;;
37001;SDS011;22913;51.910;8.374;2023-01-28T14:41:32;3.67;;;3.27;;
37001;SDS011;22913;51.910;8.374;2023-01-28T14:44:22;3.70;;;3.40;;
37001;SDS011;22913;51.910;8.374;2023-01-28T14:47:17;3.27;;;3.07;;
37001;SDS011;22913;51.910;8.374;2023-01-28T14:50:27;3.53;;;3.23;;
37001;SDS011;22913;51.910;8.374;2023-01-28T14:56:33;3.17;;;2.93;;
37001;SDS011;22913;51.910;8.374;2023-01-28T14:59:28;3.53;;;3.23;;
37001;SDS011;22913;51.910;8.374;2023-01-28T15:02:20;3.90;;;3.60;;
37001;SDS011;22913;51.910;8.374;2023-01-28T15:05:08;5.10;;;4.10;;
37001;SDS011;22913;51.910;8.374;2023-01-28T15:07:55;4.40;;;4.00;;
37001;SDS011;22913;51.910;8.374;2023-01-28T15:10:40;4.37;;;4.00;;
37001;SDS011;22913;51.910;8.374;2023-01-28T15:13:28;4.70;;;4.30;;
37001;SDS011;22913;51.910;8.374;2023-01-28T15:16:16;4.67;;;4.27;;
37001;SDS011;22913;51.910;8.374;2023-01-28T15:19:05;5.77;;;5.37;;
37001;SDS011;22913;51.910;8.374;2023-01-28T15:21:53;5.60;;;5.07;;
37001;SDS011;22913;51.910;8.374;2023-01-28T15:24:40;5.50;;;4.87;;
37001;SDS011;22913;51.910;8.374;2023-01-28T15:27:27;6.17;;;5.60;;
37001;SDS011;22913;51.910;8.374;2023-01-28T15:30:22;7.43;;;5.80;;
37001;SDS011;22913;51.910;8.374;2023-01-28T15:33:10;6.43;;;5.80;;
37001;SDS011;22913;51.910;8.374;2023-01-28T15:35:58;6.70;;;6.10;;
37001;SDS011;22913;51.910;8.374;2023-01-28T15:38:44;6.60;;;6.00;;
37001;SDS011;22913;51.910;8.374;2023-01-28T15:41:31;7.13;;;5.90;;
37001;SDS011;22913;51.910;8.374;2023-01-28T15:44:23;9.07;;;6.93;;
37001;SDS011;22913;51.910;8.374;2023-01-28T15:47:15;8.40;;;7.60;;
37001;SDS011;22913;51.910;8.374;2023-01-28T15:50:06;9.87;;;8.63;;
37001;SDS011;22913;51.910;8.374;2023-01-28T15:52:58;9.37;;;8.40;;
37001;SDS011;22913;51.910;8.374;2023-01-28T15:55:44;11.00;;;8.47;;
37001;SDS011;22913;51.910;8.374;2023-01-28T15:58:31;9.40;;;8.60;;
37001;SDS011;22913;51.910;8.374;2023-01-28T16:01:19;10.47;;;9.27;;
37001;SDS011;22913;51.910;8.374;2023-01-28T16:04:20;11.47;;;9.10;;
37001;SDS011;22913;51.910;8.374;2023-01-28T16:07:07;10.40;;;9.40;;
37001;SDS011;22913;51.910;8.374;2023-01-28T16:09:54;11.90;;;10.13;;
37001;SDS011;22913;51.910;8.374;2023-01-28T16:12:41;11.57;;;10.33;;
37001;SDS011;22913;51.910;8.374;2023-01-28T16:15:35;11.97;;;10.77;;
37001;SDS011;22913;51.910;8.374;2023-01-28T16:18:25;10.57;;;9.20;;
37001;SDS011;22913;51.910;8.374;2023-01-28T16:21:20;10.50;;;9.27;;
37001;SDS011;22913;51.910;8.374;2023-01-28T16:24:18;11.17;;;10.07;;
37001;SDS011;22913;51.910;8.374;2023-01-28T16:27:17;11.37;;;10.17;;
37001;SDS011;22913;51.910;8.374;2023-01-28T16:30:05;11.17;;;9.57;;
37001;SDS011;22913;51.910;8.374;2023-01-28T16:32:51;12.97;;;10.20;;
37001;SDS011;22913;51.910;8.374;2023-01-28T16:35:38;11.40;;;10.27;;
37001;SDS011;22913;51.910;8.374;2023-01-28T16:38:25;11.80;;;10.70;;
37001;SDS011;22913;51.910;8.374;2023-01-28T16:41:10;12.17;;;10.93;;
37001;SDS011;22913;51.910;8.374;2023-01-28T16:43:58;11.83;;;10.03;;
37001;SDS011;22913;51.910;8.374;2023-01-28T16:46:48;12.20;;;11.00;;
37001;SDS011;22913;51.910;8.374;2023-01-28T16:49:34;10.80;;;9.60;;
37001;SDS011;22913;51.910;8.374;2023-01-28T16:52:19;14.20;;;10.90;;
37001;SDS011;22913;51.910;8.374;2023-01-28T16:55:08;12.73;;;11.53;;
37001;SDS011;22913;51.910;8.374;2023-01-28T16:57:56;12.80;;;10.80;;
37001;SDS011;22913;51.910;8.374;2023-01-28T17:00:42;14.57;;;12.77;;
37001;SDS011;22913;51.910;8.374;2023-01-28T17:03:28;13.80;;;11.97;;
37001;SDS011;22913;51.910;8.374;2023-01-28T17:06:14;15.37;;;12.70;;
37001;SDS011;22913;51.910;8.374;2023-01-28T17:09:02;18.07;;;12.27;;
37001;SDS011;22913;51.910;8.374;2023-01-28T17:11:49;19.33;;;13.57;;
37001;SDS011;22913;51.910;8.374;2023-01-28T17:14:34;18.10;;;14.33;;
37001;SDS011;22913;51.910;8.374;2023-01-28T17:17:21;17.97;;;13.83;;
37001;SDS011;22913;51.910;8.374;2023-01-28T17:20:08;16.20;;;13.80;;
37001;SDS011;22913;51.910;8.374;2023-01-28T17:22:54;14.93;;;12.73;;
37001;SDS011;22913;51.910;8.374;2023-01-28T17:25:40;15.27;;;12.60;;
37001;SDS011;22913;51.910;8.374;2023-01-28T17:28:27;16.33;;;12.93;;
37001;SDS011;22913;51.910;8.374;2023-01-28T17:31:12;15.00;;;13.43;;
37001;SDS011;22913;51.910;8.374;2023-01-28T17:33:58;15.43;;;13.83;;
37001;SDS011;22913;51.910;8.374;2023-01-28T17:36:45;15.03;;;13.43;;
37001;SDS011;22913;51.910;8.374;2023-01-28T17:39:30;15.40;;;13.80;;
37001;SDS011;22913;51.910;8.374;2023-01-28T17:42:16;17.80;;;13.57;;
37001;SDS011;22913;51.910;8.374;2023-01-28T17:45:04;14.93;;;13.40;;
37001;SDS011;22913;51.910;8.374;2023-01-28T17:47:50;14.23;;;12.83;;